Time;durP1;ratioP1;P1;durP2;ratioP2;P2;SDS_P1;SDS_P2;PMS_P1;PMS_P2;Temp;Humidity;BMP_temperature;BMP_pressure;BME280_temperature;BME280_humidity;BME280_pressure;Samples;Min_cycle;Max_cycle;Signal;HPM_P1;HPM_P2
2021/12/29 00:01:10;;;;;;;482.00;55.50;;;;;;;4.70;100.00;99736.03;4739294;30;20067;-77
2021/12/29 00:03:39;;;;;;;253.40;37.97;;;;;;;4.68;100.00;99738.63;4760725;30;20056;-77
2021/12/29 00:06:07;;;;;;;383.05;51.65;;;;;;;4.69;100.00;99749.94;4718719;30;20051;-78
2021/12/29 00:08:36;;;;;;;454.15;56.03;;;;;;;4.68;100.00;99756.03;4715661;30;20391;-76
2021/12/29 00:11:06;;;;;;;427.55;56.38;;;;;;;4.68;100.00;99746.44;4693711;30;20522;-76
2021/12/29 00:13:35;;;;;;;222.23;38.42;;;;;;;4.67;100.00;99742.09;4744123;30;20284;-77
2021/12/29 00:16:04;;;;;;;538.20;65.10;;;;;;;4.68;100.00;99745.56;4725977;30;20052;-77
2021/12/29 00:18:34;;;;;;;438.50;53.17;;;;;;;4.67;100.00;99757.75;4726831;30;20232;-78
2021/12/29 00:21:05;;;;;;;258.23;44.80;;;;;;;4.66;100.00;99769.03;4731567;30;20055;-77
2021/12/29 00:23:34;;;;;;;193.45;38.00;;;;;;;4.65;100.00;99764.69;4702085;30;20075;-77
2021/12/29 00:26:23;;;;;;;136.10;30.83;;;;;;;4.67;100.00;99769.94;4694344;30;20608;-77
2021/12/29 00:28:52;;;;;;;258.02;38.58;;;;;;;4.66;100.00;99776.88;4756705;30;20051;-77
2021/12/29 00:31:20;;;;;;;320.60;49.05;;;;;;;4.66;100.00;99789.91;4744215;30;20055;-78
2021/12/29 00:34:22;;;;;;;269.92;45.08;;;;;;;4.64;100.00;99790.78;4706589;30;20266;-76
2021/12/29 00:37:22;;;;;;;;;;;;;;;4.63;100.00;99784.69;4686916;30;20305;-77
2021/12/29 00:40:10;;;;;;;58.00;20.42;;;;;;;4.64;100.00;99789.03;4728389;30;20381;-77
2021/12/29 00:43:11;;;;;;;179.68;36.00;;;;;;;4.65;100.00;99785.59;4671171;30;20083;-77
2021/12/29 00:45:59;;;;;;;202.27;35.08;;;;;;;4.67;100.00;99791.69;4758191;30;20044;-77
2021/12/29 00:48:35;;;;;;;242.95;39.95;;;;;;;4.69;100.00;99800.41;4746847;30;20051;-76
2021/12/29 00:51:05;;;;;;;242.93;44.58;;;;;;;4.71;100.00;99803.03;4746518;30;20059;-77
2021/12/29 00:53:34;;;;;;;259.98;42.17;;;;;;;4.72;100.00;99809.13;4718136;30;20059;-77
2021/12/29 00:56:03;;;;;;;226.50;37.90;;;;;;;4.74;100.00;99818.69;4709836;30;20044;-76
2021/12/29 00:58:33;;;;;;;240.50;37.55;;;;;;;4.76;100.00;99819.59;4751934;30;20181;-77
2021/12/29 01:01:04;;;;;;;84.47;24.13;;;;;;;4.76;100.00;99821.34;4732670;30;20067;-77
2021/12/29 01:03:34;;;;;;;90.93;24.85;;;;;;;4.78;100.00;99825.72;4763136;30;20051;-77
2021/12/29 01:06:04;;;;;;;104.40;28.42;;;;;;;4.78;100.00;99830.06;4746229;30;20071;-77
2021/12/29 01:08:32;;;;;;;84.30;23.23;;;;;;;4.80;100.00;99838.78;4740075;30;20051;-76
2021/12/29 01:11:02;;;;;;;117.40;28.20;;;;;;;4.80;100.00;99837.06;4738733;30;20051;-77
2021/12/29 01:13:33;;;;;;;90.80;25.35;;;;;;;4.80;100.00;99859.66;4721874;30;20048;-77
2021/12/29 01:18:36;;;;;;;107.13;26.17;;;;;;;4.81;100.00;99859.69;4733651;30;20060;-77
2021/12/29 01:21:06;;;;;;;112.07;27.55;;;;;;;4.82;100.00;99866.66;4717821;30;20419;-76
2021/12/29 01:23:35;;;;;;;115.22;25.58;;;;;;;4.82;100.00;99884.03;4752630;30;20064;-77
2021/12/29 01:26:03;;;;;;;103.90;26.02;;;;;;;4.81;100.00;99882.31;4700107;30;20060;-77
2021/12/29 01:28:32;;;;;;;85.25;23.65;;;;;;;4.81;100.00;99896.22;4721966;30;20048;-77
2021/12/29 01:31:01;;;;;;;90.68;22.48;;;;;;;4.81;100.00;99896.22;4751706;30;20651;-77
2021/12/29 01:33:30;;;;;;;106.80;25.38;;;;;;;4.81;100.00;99892.75;4754455;30;20067;-77
2021/12/29 01:35:58;;;;;;;81.40;22.58;;;;;;;4.80;100.00;99889.28;4713576;30;20048;-76
2021/12/29 01:38:29;;;;;;;68.53;20.88;;;;;;;4.78;100.00;99875.31;4718352;30;20066;-77
2021/12/29 01:40:58;;;;;;;94.82;24.08;;;;;;;4.80;100.00;99897.09;4723348;30;20063;-78
2021/12/29 01:43:26;;;;;;;82.25;23.38;;;;;;;4.81;100.00;99905.78;4707644;30;20415;-77
2021/12/29 01:45:55;;;;;;;110.20;24.52;;;;;;;4.80;100.00;99909.25;4743728;30;20077;-76
2021/12/29 01:48:23;;;;;;;83.57;21.67;;;;;;;4.80;100.00;99917.97;4743259;30;20063;-77
2021/12/29 01:50:52;;;;;;;81.80;20.92;;;;;;;4.80;100.00;99917.09;4753700;30;20491;-75
2021/12/29 01:53:30;;;;;;;83.85;22.08;;;;;;;4.80;100.00;99932.75;4731975;30;20082;-77
2021/12/29 01:55:59;;;;;;;92.20;23.88;;;;;;;4.81;100.00;99935.38;4735028;30;20273;-77
2021/12/29 01:58:28;;;;;;;129.60;26.52;;;;;;;4.82;100.00;99936.25;4725395;30;20060;-77
2021/12/29 02:00:59;;;;;;;101.03;25.75;;;;;;;4.83;100.00;99935.41;4705444;30;20403;-76
2021/12/29 02:03:28;;;;;;;93.82;22.67;;;;;;;4.83;100.00;99938.88;4730686;30;20431;-76
2021/12/29 02:05:57;;;;;;;80.20;19.50;;;;;;;4.85;100.00;99957.19;4709643;30;20059;-76
2021/12/29 02:08:28;;;;;;;91.82;21.80;;;;;;;4.85;100.00;99963.25;4730985;30;20056;-77
2021/12/29 02:11:00;;;;;;;100.68;22.95;;;;;;;4.87;100.00;99974.59;4729609;30;20684;-77
2021/12/29 02:13:28;;;;;;;137.32;25.05;;;;;;;4.85;100.00;99963.25;4736226;30;20047;-77
2021/12/29 02:16:00;;;;;;;109.65;23.33;;;;;;;4.87;100.00;99973.72;4712088;30;20052;-76
2021/12/29 02:18:30;;;;;;;128.10;23.55;;;;;;;4.86;100.00;99980.69;4717264;30;20060;-76
2021/12/29 02:20:59;;;;;;;88.07;18.40;;;;;;;4.87;100.00;99997.22;4730835;30;20052;-76
2021/12/29 02:23:34;;;;;;;104.82;20.35;;;;;;;4.87;100.00;100002.44;4761899;30;20371;-78
2021/12/29 02:26:03;;;;;;;113.47;20.63;;;;;;;4.89;100.00;100003.34;4756290;30;20055;-77
2021/12/29 02:28:34;;;;;;;88.20;16.73;;;;;;;4.89;100.00;100016.41;4711966;30;20468;-76
2021/12/29 02:31:03;;;;;;;134.25;20.55;;;;;;;4.89;100.00;100011.19;4729412;30;20051;-76
2021/12/29 02:33:34;;;;;;;138.15;20.02;;;;;;;4.89;100.00;100016.41;4716230;30;20261;-76
2021/12/29 02:36:04;;;;;;;;;;;;;;;4.87;100.00;100028.56;4724558;30;20517;-76
2021/12/29 02:38:42;;;;;;;93.97;16.50;;;;;;;4.84;100.00;100024.19;4728427;30;20060;-76
2021/12/29 02:41:11;;;;;;;54.72;13.88;;;;;;;4.84;100.00;100028.53;4770076;29;21529;-76
2021/12/29 02:43:40;;;;;;;81.18;16.10;;;;;;;4.83;100.00;100021.53;4738024;30;20063;-76
2021/12/29 02:46:12;;;;;;;95.57;17.20;;;;;;;4.84;100.00;100033.75;4762396;30;20051;-77
2021/12/29 02:48:50;;;;;;;80.10;15.93;;;;;;;4.85;100.00;100031.13;4750627;30;20269;-76
2021/12/29 02:51:18;;;;;;;90.47;16.13;;;;;;;4.85;100.00;100038.09;4738481;30;20047;-76
2021/12/29 02:53:47;;;;;;;106.00;17.20;;;;;;;4.87;100.00;100044.22;4746732;30;20529;-77
2021/12/29 02:56:16;;;;;;;114.78;18.48;;;;;;;4.88;100.00;100046.00;4739991;30;20079;-76
2021/12/29 02:58:44;;;;;;;124.07;19.42;;;;;;;4.90;100.00;100041.66;4702581;30;20036;-76
2021/12/29 03:01:14;;;;;;;157.85;22.83;;;;;;;4.92;100.00;100037.34;4765710;30;20056;-77
2021/12/29 03:03:44;;;;;;;115.28;20.65;;;;;;;4.94;100.00;100048.66;4737115;30;20044;-77
2021/12/29 03:06:13;;;;;;;103.18;21.50;;;;;;;4.97;100.00;100045.22;4743153;30;20055;-77
2021/12/29 03:08:43;;;;;;;163.85;25.75;;;;;;;4.99;100.00;100051.31;4758750;30;20047;-77
2021/12/29 03:11:11;;;;;;;64.57;14.35;;;;;;;5.02;100.00;100049.63;4744970;30;20426;-76
2021/12/29 03:13:41;;;;;;;141.07;24.50;;;;;;;5.04;100.00;100047.06;4730377;30;20255;-76
2021/12/29 03:16:10;;;;;;;115.50;22.70;;;;;;;5.05;100.00;100052.31;4707837;30;20384;-76
2021/12/29 03:18:41;;;;;;;181.18;25.65;;;;;;;5.07;100.00;100052.31;4718721;30;20048;-76
2021/12/29 03:21:10;;;;;;;109.85;23.05;;;;;;;5.08;100.00;100065.41;4761833;30;20398;-77
2021/12/29 03:23:39;;;;;;;185.83;26.97;;;;;;;5.08;100.00;100073.25;4736737;30;20043;-76
2021/12/29 03:26:08;;;;;;;130.48;25.83;;;;;;;5.11;100.00;100071.53;4761206;30;20047;-76
2021/12/29 03:28:38;;;;;;;166.15;26.75;;;;;;;5.12;100.00;100073.25;4715199;30;20275;-77
2021/12/29 03:31:11;;;;;;;191.55;28.17;;;;;;;5.12;100.00;100086.31;4738046;30;20060;-76
2021/12/29 03:33:41;;;;;;;213.32;30.00;;;;;;;5.13;100.00;100093.31;4729800;30;20153;-77
2021/12/29 03:36:10;;;;;;;218.18;28.63;;;;;;;5.11;100.00;100090.69;4752866;30;20051;-76
2021/12/29 03:38:40;;;;;;;217.88;29.90;;;;;;;5.11;100.00;100100.25;4729221;30;20052;-76
2021/12/29 03:41:13;;;;;;;228.90;31.75;;;;;;;5.10;100.00;100107.19;4727905;30;20064;-76
2021/12/29 03:43:43;;;;;;;198.70;29.45;;;;;;;5.11;100.00;100108.09;4712075;30;20416;-76
2021/12/29 03:46:13;;;;;;;239.50;30.48;;;;;;;5.10;100.00;100111.53;4694719;30;20400;-76
2021/12/29 03:48:45;;;;;;;219.70;31.58;;;;;;;5.10;100.00;100108.94;4720359;30;20059;-76
2021/12/29 03:51:14;;;;;;;197.45;29.70;;;;;;;5.10;100.00;100108.94;4742054;30;20375;-76
2021/12/29 03:53:43;;;;;;;230.07;32.22;;;;;;;5.09;100.00;100118.50;4702325;30;20111;-76
2021/12/29 03:56:11;;;;;;;206.80;32.10;;;;;;;5.11;100.00;100115.94;4727934;30;20060;-76
2021/12/29 03:58:41;;;;;;;209.07;31.20;;;;;;;5.10;100.00;100120.25;4724739;30;20507;-76
2021/12/29 04:01:12;;;;;;;183.73;28.45;;;;;;;5.10;100.00;100122.84;4715118;30;20419;-76
2021/12/29 04:03:45;;;;;;;218.63;30.85;;;;;;;5.12;100.00;100125.50;4716111;30;20495;-76
2021/12/29 04:06:17;;;;;;;191.82;31.67;;;;;;;5.15;100.00;100129.03;4698338;30;20056;-77
2021/12/29 04:08:47;;;;;;;165.48;28.17;;;;;;;5.16;100.00;100128.19;4724960;30;20063;-75
2021/12/29 04:11:16;;;;;;;180.37;29.33;;;;;;;5.17;100.00;100131.66;4713646;30;20048;-77
2021/12/29 04:13:47;;;;;;;177.52;30.25;;;;;;;5.19;100.00;100129.94;4726008;30;20056;-76
2021/12/29 04:16:18;;;;;;;223.60;31.85;;;;;;;5.20;100.00;100134.34;4691545;30;20507;-77
2021/12/29 04:19:13;;;;;;;209.45;31.00;;;;;;;5.21;100.00;100130.84;4722679;30;20129;-76
2021/12/29 04:21:45;;;;;;;204.07;30.40;;;;;;;5.22;100.00;100143.06;4699761;30;20061;-77
2021/12/29 04:24:14;;;;;;;151.40;26.85;;;;;;;5.22;100.00;100151.78;4724519;30;20057;-75
2021/12/29 04:26:43;;;;;;;231.45;32.75;;;;;;;5.24;100.00;100154.41;4729241;30;20068;-76
2021/12/29 04:29:13;;;;;;;257.30;33.00;;;;;;;5.24;100.00;100165.72;4712319;30;20052;-77
2021/12/29 04:31:44;;;;;;;196.75;29.67;;;;;;;5.24;100.00;100162.25;4717459;30;20052;-76
2021/12/29 04:34:13;;;;;;;249.90;32.55;;;;;;;5.24;100.00;100168.34;4717477;30;20048;-77
2021/12/29 04:36:42;;;;;;;267.13;33.58;;;;;;;5.24;100.00;100164.88;4717345;30;20388;-76
2021/12/29 04:39:10;;;;;;;246.43;32.53;;;;;;;5.24;100.00;100175.31;4717995;30;20052;-77
2021/12/29 04:41:39;;;;;;;287.48;35.13;;;;;;;5.24;100.00;100190.97;4725452;30;20063;-76
2021/12/29 04:44:07;;;;;;;271.13;34.33;;;;;;;5.23;100.00;100191.81;4720388;30;20039;-77
2021/12/29 04:46:38;;;;;;;284.98;33.88;;;;;;;5.25;100.00;100197.94;4749827;30;20070;-77
2021/12/29 04:49:11;;;;;;;230.77;32.88;;;;;;;5.25;100.00;100205.78;4734199;30;20066;-76
2021/12/29 04:51:57;;;;;;;268.88;34.85;;;;;;;5.25;100.00;100201.47;4736790;30;20058;-76
2021/12/29 04:54:25;;;;;;;274.00;32.88;;;;;;;5.25;100.00;100205.78;4733445;30;20613;-76
2021/12/29 04:56:55;;;;;;;347.08;35.97;;;;;;;5.24;100.00;100210.13;4755974;30;20055;-77
2021/12/29 04:59:25;;;;;;;329.45;35.50;;;;;;;5.26;100.00;100210.16;4756443;30;20154;-77
2021/12/29 05:01:54;;;;;;;;;;;;;;;5.24;100.00;100210.13;4731528;30;20039;-76
2021/12/29 05:04:31;;;;;;;292.75;33.20;;;;;;;5.23;100.00;100216.19;4728607;30;20518;-77
2021/12/29 05:09:49;;;;;;;427.90;37.72;;;;;;;5.22;100.00;100224.91;4749366;30;20052;-76
2021/12/29 05:12:17;;;;;;;282.10;30.90;;;;;;;5.22;100.00;100231.88;4708158;30;20197;-76
2021/12/29 05:14:46;;;;;;;320.42;34.55;;;;;;;5.21;100.00;100232.72;4748636;30;20047;-77
2021/12/29 05:17:15;;;;;;;397.58;35.42;;;;;;;5.22;100.00;100235.38;4738612;30;20056;-76
2021/12/29 05:19:43;;;;;;;437.13;38.30;;;;;;;5.21;100.00;100243.16;4713285;30;20058;-76
2021/12/29 05:22:12;;;;;;;318.85;30.02;;;;;;;5.21;100.00;100233.59;4699142;30;20048;-77
2021/12/29 05:24:40;;;;;;;432.08;37.78;;;;;;;5.20;100.00;100244.03;4731858;30;20058;-75
2021/12/29 05:27:09;;;;;;;448.58;35.55;;;;;;;5.19;100.00;100244.88;4701180;30;20060;-76
2021/12/29 05:29:38;;;;;;;409.17;34.88;;;;;;;5.19;100.00;100255.34;4718116;30;20502;-77
2021/12/29 05:32:07;;;;;;;336.13;33.05;;;;;;;5.18;100.00;100259.69;4747250;30;20047;-77
2021/12/29 05:34:36;;;;;;;416.58;36.92;;;;;;;5.19;100.00;100260.56;4734164;30;20039;-77
2021/12/29 05:37:04;;;;;;;407.23;36.00;;;;;;;5.19;100.00;100265.78;4724141;30;20060;-77
2021/12/29 05:39:32;;;;;;;272.27;31.45;;;;;;;5.20;100.00;100273.66;4704162;30;20052;-76
2021/12/29 05:42:01;;;;;;;405.70;34.58;;;;;;;5.20;100.00;100268.44;4719186;30;20509;-76
2021/12/29 05:44:29;;;;;;;425.58;36.63;;;;;;;5.21;100.00;100280.63;4747989;30;20073;-77
2021/12/29 05:46:58;;;;;;;308.40;31.30;;;;;;;5.23;100.00;100288.47;4726993;30;20174;-77
2021/12/29 05:49:26;;;;;;;319.38;33.40;;;;;;;5.21;100.00;100296.28;4724204;30;20051;-75
2021/12/29 05:51:55;;;;;;;347.20;32.63;;;;;;;5.23;100.00;100299.78;4712751;30;20059;-76
2021/12/29 05:54:23;;;;;;;339.45;33.03;;;;;;;5.22;100.00;100302.41;4703952;30;20040;-76
2021/12/29 05:56:52;;;;;;;289.48;30.00;;;;;;;5.22;100.00;100305.91;4749784;30;20597;-77
2021/12/29 05:59:20;;;;;;;420.48;35.83;;;;;;;5.24;100.00;100305.94;4757344;30;20062;-76
2021/12/29 06:01:50;;;;;;;450.15;36.83;;;;;;;5.24;100.00;100301.56;4730157;30;20399;-76
2021/12/29 06:04:19;;;;;;;383.98;34.80;;;;;;;5.26;100.00;100299.00;4763424;30;20056;-77
2021/12/29 06:06:47;;;;;;;324.52;33.10;;;;;;;5.28;100.00;100299.88;4729524;30;20691;-76
2021/12/29 06:09:16;;;;;;;429.70;39.38;;;;;;;5.30;100.00;100310.38;4723406;30;20055;-77
2021/12/29 06:11:48;;;;;;;307.42;31.38;;;;;;;5.31;100.00;100309.50;4703572;30;20341;-76
2021/12/29 06:14:21;;;;;;;376.75;33.28;;;;;;;5.31;100.00;100318.22;4740629;30;20048;-77
2021/12/29 06:16:50;;;;;;;374.48;35.47;;;;;;;5.34;100.00;100333.06;4739717;30;20344;-76
2021/12/29 06:19:18;;;;;;;420.27;37.65;;;;;;;5.34;100.00;100323.50;4761240;29;20052;-76
2021/12/29 06:21:48;;;;;;;391.00;36.50;;;;;;;5.36;100.00;100321.78;4710948;30;20259;-76
2021/12/29 06:24:16;;;;;;;371.95;34.30;;;;;;;5.37;100.00;100328.78;4732152;30;20055;-77
2021/12/29 06:26:45;;;;;;;378.77;37.10;;;;;;;5.38;100.00;100334.88;4742593;30;20576;-77
2021/12/29 06:29:13;;;;;;;440.75;40.50;;;;;;;5.39;100.00;100339.25;4725531;30;20047;-76
2021/12/29 06:31:47;;;;;;;380.92;36.58;;;;;;;5.40;100.00;100339.25;4742167;30;20048;-77
2021/12/29 06:34:16;;;;;;;416.60;37.80;;;;;;;5.40;100.00;100352.31;4745784;30;20063;-77
2021/12/29 06:36:44;;;;;;;487.35;39.05;;;;;;;5.41;100.00;100348.00;4689000;30;20071;-76
2021/12/29 06:39:13;;;;;;;377.17;37.40;;;;;;;5.40;100.00;100359.28;4717881;30;20516;-77
2021/12/29 06:41:42;;;;;;;449.23;40.42;;;;;;;5.39;100.00;100368.00;4738741;30;20048;-77
2021/12/29 06:44:10;;;;;;;495.02;43.72;;;;;;;5.39;100.00;100374.09;4736422;30;20052;-77
2021/12/29 06:46:39;;;;;;;485.92;41.08;;;;;;;5.40;100.00;100380.19;4730738;30;20067;-77
2021/12/29 06:49:08;;;;;;;522.53;42.78;;;;;;;5.39;100.00;100378.47;4721567;30;20502;-77
2021/12/29 06:51:36;;;;;;;412.02;38.55;;;;;;;5.38;100.00;100381.91;4744286;30;20044;-77
2021/12/29 06:54:05;;;;;;;374.02;36.25;;;;;;;5.38;100.00;100393.22;4696556;30;20056;-77
2021/12/29 06:56:34;;;;;;;359.42;33.90;;;;;;;5.38;100.00;100400.19;4717759;30;20318;-78
2021/12/29 06:59:03;;;;;;;299.45;30.95;;;;;;;5.38;100.00;100406.28;4713672;30;20521;-76
2021/12/29 07:01:32;;;;;;;359.05;34.20;;;;;;;5.38;100.00;100411.53;4749074;30;20084;-77
2021/12/29 07:04:01;;;;;;;405.00;36.85;;;;;;;5.38;100.00;100415.88;4728935;30;20055;-76
2021/12/29 07:06:32;;;;;;;253.38;27.33;;;;;;;5.38;100.00;100415.88;4727307;30;20075;-76
2021/12/29 07:09:00;;;;;;;356.17;32.72;;;;;;;5.38;100.00;100415.88;4707045;30;20403;-77
2021/12/29 07:11:29;;;;;;;419.20;35.53;;;;;;;5.37;100.00;100407.16;4710028;30;20273;-76
2021/12/29 07:14:02;;;;;;;320.77;30.65;;;;;;;5.38;100.00;100418.50;4759789;30;20056;-76
2021/12/29 07:16:32;;;;;;;387.88;33.70;;;;;;;5.36;100.00;100415.84;4727703;30;20048;-76
2021/12/29 07:19:00;;;;;;;418.93;33.27;;;;;;;5.36;100.00;100417.59;4730864;30;20384;-76
2021/12/29 07:21:29;;;;;;;399.33;32.50;;;;;;;5.36;100.00;100415.84;4739249;30;20268;-76
2021/12/29 07:23:58;;;;;;;381.35;31.83;;;;;;;5.36;100.00;100420.19;4702192;30;20064;-76
2021/12/29 07:26:31;;;;;;;499.15;38.13;;;;;;;5.36;100.00;100434.13;4727538;30;20063;-76
2021/12/29 07:29:00;;;;;;;522.30;38.17;;;;;;;5.38;100.00;100429.81;4757379;30;20406;-76
2021/12/29 07:31:29;;;;;;;411.23;33.47;;;;;;;5.37;100.00;100435.91;4745418;30;20059;-77
2021/12/29 07:34:21;;;;;;;482.85;36.20;;;;;;;5.37;100.00;100441.13;4713806;30;20266;-77
2021/12/29 07:36:51;;;;;;;488.10;37.15;;;;;;;5.38;100.00;100442.88;4735789;30;20062;-76
2021/12/29 07:39:20;;;;;;;245.55;24.05;;;;;;;5.39;100.00;100457.72;4724109;30;20248;-76
2021/12/29 07:41:49;;;;;;;345.50;31.73;;;;;;;5.40;100.00;100456.84;4745127;30;20062;-76
2021/12/29 07:44:23;;;;;;;552.55;41.67;;;;;;;5.40;100.00;100445.53;4730122;30;20273;-77
2021/12/29 07:46:54;;;;;;;463.35;39.10;;;;;;;5.40;100.00;100454.22;4751645;30;20067;-76
2021/12/29 07:49:23;;;;;;;507.38;38.47;;;;;;;5.40;100.00;100450.75;4735436;30;20434;-78
2021/12/29 07:51:53;;;;;;;590.63;42.17;;;;;;;5.40;100.00;100449.00;4731059;30;20376;-76
2021/12/29 07:54:22;;;;;;;579.08;43.50;;;;;;;5.40;100.00;100448.13;4735224;30;20064;-77
2021/12/29 07:56:51;;;;;;;476.73;40.25;;;;;;;5.42;100.00;100464.72;4726706;30;20044;-76
2021/12/29 07:59:20;;;;;;;431.70;39.88;;;;;;;5.42;100.00;100470.81;4733631;30;20055;-76
2021/12/29 08:01:49;;;;;;;435.77;40.80;;;;;;;5.42;100.00;100468.22;4738303;30;20062;-77
2021/12/29 08:04:21;;;;;;;458.35;41.15;;;;;;;5.43;100.00;100466.50;4750971;30;20313;-77
2021/12/29 08:06:51;;;;;;;480.45;42.53;;;;;;;5.43;100.00;100475.22;4745004;30;20541;-77
2021/12/29 08:09:19;;;;;;;533.60;47.72;;;;;;;5.44;100.00;100470.84;4713118;30;20564;-77
2021/12/29 08:11:49;;;;;;;532.33;49.13;;;;;;;5.45;100.00;100473.50;4735582;30;20048;-77
2021/12/29 08:14:18;;;;;;;373.23;40.65;;;;;;;5.47;100.00;100481.38;4728293;30;20047;-77
2021/12/29 08:16:47;;;;;;;471.63;47.03;;;;;;;5.47;100.00;100486.59;4720043;30;20390;-77
2021/12/29 08:19:16;;;;;;;627.83;52.63;;;;;;;5.47;100.00;100490.09;4703542;30;20900;-76
2021/12/29 08:21:45;;;;;;;560.25;48.90;;;;;;;5.47;100.00;100482.25;4738475;30;20047;-77
2021/12/29 08:24:19;;;;;;;202.18;29.75;;;;;;;5.46;100.00;100485.72;4714682;30;20531;-77
2021/12/29 08:26:47;;;;;;;506.85;47.63;;;;;;;5.47;100.00;100492.69;4718512;30;20040;-77
2021/12/29 08:29:16;;;;;;;577.67;48.63;;;;;;;5.47;100.00;100500.53;4719321;30;20090;-77
2021/12/29 08:31:45;;;;;;;320.05;39.55;;;;;;;5.49;100.00;100494.47;4705122;30;20083;-77
2021/12/29 08:34:15;;;;;;;615.63;54.60;;;;;;;5.47;100.00;100492.69;4720054;30;20091;-76
2021/12/29 08:36:43;;;;;;;294.58;36.50;;;;;;;5.47;100.00;100490.09;4730289;30;20399;-77
2021/12/29 08:39:14;;;;;;;368.30;38.65;;;;;;;5.49;100.00;100494.47;4730799;30;20578;-76
2021/12/29 08:41:43;;;;;;;407.02;44.30;;;;;;;5.49;100.00;100494.47;4716684;30;20521;-76
2021/12/29 08:44:14;;;;;;;561.90;47.05;;;;;;;5.48;100.00;100501.41;4716532;30;20285;-77
2021/12/29 08:46:45;;;;;;;553.83;51.80;;;;;;;5.49;100.00;100505.81;4740304;30;20069;-77
2021/12/29 08:49:14;;;;;;;483.55;46.85;;;;;;;5.49;100.00;100513.63;4739791;30;20371;-77
2021/12/29 08:51:43;;;;;;;533.70;49.38;;;;;;;5.49;100.00;100510.16;4745138;30;20059;-76
2021/12/29 08:54:13;;;;;;;464.85;44.10;;;;;;;5.50;100.00;100511.91;4760922;30;20351;-76
2021/12/29 08:56:45;;;;;;;563.78;49.95;;;;;;;5.51;100.00;100531.97;4738057;30;20044;-77
2021/12/29 08:59:14;;;;;;;543.15;51.97;;;;;;;5.51;100.00;100540.69;4702911;30;20048;-77
2021/12/29 09:01:42;;;;;;;551.63;52.28;;;;;;;5.52;100.00;100531.09;4745307;30;20039;-76
2021/12/29 09:04:13;;;;;;;539.47;50.78;;;;;;;5.54;100.00;100529.41;4722962;30;20264;-77
2021/12/29 09:06:41;;;;;;;636.88;72.78;;;;;;;5.55;100.00;100526.81;4748945;30;20123;-76
2021/12/29 09:09:10;;;;;;;553.38;54.45;;;;;;;5.57;100.00;100521.63;4723366;30;20153;-77
2021/12/29 09:11:39;;;;;;;607.97;57.17;;;;;;;5.57;100.00;100519.00;4753822;30;20056;-78
2021/12/29 09:14:08;;;;;;;562.25;55.30;;;;;;;5.58;100.00;100516.44;4719505;30;20060;-78
2021/12/29 09:16:36;;;;;;;449.17;46.50;;;;;;;5.60;100.00;100519.06;4733914;30;20464;-77
2021/12/29 09:19:05;;;;;;;469.80;49.33;;;;;;;5.62;100.00;100514.75;4721292;30;20447;-76
2021/12/29 09:21:34;;;;;;;474.70;49.22;;;;;;;5.64;100.00;100519.13;4739468;30;20067;-77
2021/12/29 09:24:03;;;;;;;463.15;49.63;;;;;;;5.67;100.00;100528.75;4736597;30;20436;-77
2021/12/29 09:26:31;;;;;;;427.50;48.17;;;;;;;5.71;100.00;100532.31;4752706;30;20040;-77
2021/12/29 09:29:00;;;;;;;406.50;45.20;;;;;;;5.72;100.00;100537.56;4722834;30;20607;-76
2021/12/29 09:31:28;;;;;;;528.15;50.60;;;;;;;5.74;100.00;100529.78;4722965;30;20055;-76
2021/12/29 09:33:58;;;;;;;449.52;48.65;;;;;;;5.74;100.00;100530.63;4716790;30;20068;-76
2021/12/29 09:36:26;;;;;;;458.73;48.83;;;;;;;5.80;100.00;100532.47;4707976;30;20055;-76
2021/12/29 09:38:55;;;;;;;413.67;45.63;;;;;;;5.83;100.00;100533.41;4736484;30;20395;-76
2021/12/29 09:41:24;;;;;;;542.00;53.50;;;;;;;5.86;100.00;100535.22;4728775;30;20414;-76
2021/12/29 09:43:52;;;;;;;360.38;43.42;;;;;;;5.89;100.00;100529.16;4728983;30;20040;-76
2021/12/29 09:46:23;;;;;;;467.30;47.65;;;;;;;5.91;100.00;100530.94;4723305;30;20506;-76
2021/12/29 09:48:52;;;;;;;453.15;47.05;;;;;;;5.96;100.00;100536.28;4745639;30;20051;-76
2021/12/29 09:51:21;;;;;;;481.17;48.25;;;;;;;5.99;100.00;100541.56;4702253;30;20048;-76
2021/12/29 09:53:50;;;;;;;471.02;49.53;;;;;;;6.01;100.00;100535.53;4725076;30;20044;-76
2021/12/29 09:56:19;;;;;;;537.70;57.95;;;;;;;6.02;100.00;100529.41;4741682;30;20056;-77
2021/12/29 09:58:49;;;;;;;499.58;46.63;;;;;;;6.04;100.00;100529.44;4720904;30;20040;-76
2021/12/29 10:01:18;;;;;;;669.20;58.05;;;;;;;6.04;100.00;100522.47;4714936;30;20534;-77
2021/12/29 10:03:50;;;;;;;233.63;34.28;;;;;;;6.06;100.00;100522.50;4697819;30;20063;-77
2021/12/29 10:06:19;;;;;;;518.60;48.33;;;;;;;6.07;100.00;100518.13;4718087;30;20271;-76
2021/12/29 10:08:48;;;;;;;429.40;43.72;;;;;;;6.08;100.00;100517.31;4732568;30;20048;-76
2021/12/29 10:11:37;;;;;;;526.88;48.97;;;;;;;6.08;100.00;100517.31;4736307;30;20170;-77
2021/12/29 10:14:11;;;;;;;440.55;43.10;;;;;;;6.07;100.00;100519.03;4707897;30;20273;-77
2021/12/29 10:16:41;;;;;;;216.10;31.63;;;;;;;6.09;100.00;100519.03;4724277;30;20044;-76
2021/12/29 10:19:12;;;;;;;323.20;35.72;;;;;;;6.10;100.00;100515.59;4707566;30;20056;-76
2021/12/29 10:21:44;;;;;;;488.40;45.95;;;;;;;6.08;100.00;100523.41;4746383;30;20060;-77
2021/12/29 10:24:19;;;;;;;300.50;39.63;;;;;;;6.07;100.00;100537.34;4729660;30;20504;-77
2021/12/29 10:26:55;;;;;;;415.00;42.83;;;;;;;6.08;100.00;100531.25;4731262;30;20623;-76
2021/12/29 10:29:28;;;;;;;393.95;43.22;;;;;;;6.08;100.00;100528.63;4760798;30;20059;-76
2021/12/29 10:32:04;;;;;;;400.50;45.20;;;;;;;6.09;100.00;100529.50;4735679;30;20036;-77
2021/12/29 10:34:32;;;;;;;350.45;44.55;;;;;;;6.08;100.00;100528.63;4751284;30;20055;-76
2021/12/29 10:37:06;;;;;;;328.48;42.47;;;;;;;6.08;100.00;100536.47;4740041;30;20062;-75
2021/12/29 10:39:42;;;;;;;415.27;46.95;;;;;;;6.10;100.00;100539.13;4739509;30;20067;-76
2021/12/29 10:42:17;;;;;;;415.63;46.20;;;;;;;6.11;100.00;100538.28;4711152;30;20079;-76
2021/12/29 10:45:02;;;;;;;405.48;46.28;;;;;;;6.14;100.00;100533.09;4740811;30;20039;-76
2021/12/29 10:47:36;;;;;;;329.95;39.90;;;;;;;6.16;100.00;100519.19;4746855;30;20048;-76
2021/12/29 10:50:11;;;;;;;386.23;43.80;;;;;;;6.19;100.00;100532.31;4710547;30;20710;-77
2021/12/29 10:52:53;;;;;;;457.75;44.95;;;;;;;6.23;100.00;100521.03;4732559;30;20050;-77
2021/12/29 10:55:31;;;;;;;442.40;43.33;;;;;;;6.27;100.00;100524.56;4753387;30;20068;-77
2021/12/29 10:58:17;;;;;;;466.38;46.10;;;;;;;6.32;100.00;100528.16;4748769;29;20192;-77
2021/12/29 11:01:02;;;;;;;468.45;43.30;;;;;;;6.35;100.00;100536.06;4716446;30;20063;-76
2021/12/29 11:03:33;;;;;;;427.15;41.13;;;;;;;6.38;100.00;100535.22;4722240;30;20040;-76
2021/12/29 11:06:04;;;;;;;410.00;40.08;;;;;;;6.41;100.00;100532.66;4734349;30;20282;-77
2021/12/29 11:08:55;;;;;;;616.03;55.13;;;;;;;6.47;100.00;100537.09;4756076;30;20529;-76
2021/12/29 11:11:39;;;;;;;469.58;43.58;;;;;;;6.51;100.00;100533.66;4727010;30;20048;-77
2021/12/29 11:14:22;;;;;;;1230.72;95.93;;;;;;;6.56;100.00;100539.84;4728178;30;20252;-76
2021/12/29 11:17:23;;;;;;;986.35;81.68;;;;;;;6.63;100.00;100544.31;4731602;30;20162;-77
2021/12/29 11:19:59;;;;;;;535.55;49.17;;;;;;;6.69;100.00;100551.38;4668014;30;20058;-77
2021/12/29 11:22:29;;;;;;;677.78;59.63;;;;;;;6.72;100.00;100546.19;4719159;30;20052;-77
2021/12/29 11:25:01;;;;;;;507.00;49.78;;;;;;;6.73;100.00;100559.31;4737370;30;20064;-76
2021/12/29 11:27:35;;;;;;;1070.72;83.18;;;;;;;6.75;100.00;100559.34;4717507;30;20063;-77